createdAt,value
2023-03-22T05:03:19.245Z,45.00
2023-03-22T05:05:57.678Z,43.50
2023-03-22T05:08:30.953Z,40.60
2023-03-22T05:11:06.276Z,46.20
2023-03-22T05:13:35.758Z,40.00
2023-03-22T05:16:10.260Z,43.30
2023-03-22T05:18:59.349Z,37.30
2023-03-22T05:21:29.241Z,42.30
2023-03-22T05:35:27.282Z,40.60
2023-03-22T05:46:39.281Z,56.30
2023-03-22T05:49:48.559Z,44.50
2023-03-22T05:52:23.098Z,62.00
2023-03-22T05:55:12.894Z,54.80
2023-03-22T05:57:46.681Z,45.30
2023-03-22T06:00:18.356Z,42.70
2023-03-22T06:03:15.174Z,45.10
2023-03-22T06:05:46.882Z,41.40
2023-03-22T06:08:17.670Z,41.00
2023-03-22T06:10:49.606Z,42.10
2023-03-22T06:13:24.554Z,43.50
2023-03-22T06:15:54.823Z,50.50
2023-03-22T06:18:31.178Z,50.10
2023-03-22T06:21:07.491Z,41.60
2023-03-22T06:23:37.016Z,45.30
2023-03-22T06:26:11.763Z,40.40
2023-03-22T06:28:41.615Z,40.70
2023-03-22T06:31:11.200Z,42.50
2023-03-22T06:33:46.651Z,55.30
2023-03-22T06:36:23.887Z,50.40
2023-03-22T06:39:08.803Z,41.40
2023-03-22T06:41:41.006Z,44.80
2023-03-22T06:44:38.573Z,36.60
2023-03-22T06:47:16.588Z,36.10
2023-03-22T06:49:55.694Z,37.80
2023-03-22T06:52:30.417Z,39.10
2023-03-22T06:54:59.388Z,35.80
2023-03-22T06:57:33.631Z,32.70
2023-03-22T07:00:05.338Z,40.90
2023-03-22T07:02:58.647Z,39.30
2023-03-22T07:05:46.721Z,46.80
2023-03-22T07:08:16.437Z,34.60
2023-03-22T07:11:07.049Z,35.30
2023-03-22T07:13:54.573Z,38.70
2023-03-22T07:16:29.250Z,36.30
2023-03-22T07:19:23.962Z,44.90
2023-03-22T07:22:13.671Z,51.50
2023-03-22T07:25:15.156Z,58.30
2023-03-22T07:27:51.373Z,67.00
2023-03-22T07:30:38.971Z,58.00
2023-03-22T07:33:12.040Z,62.00
2023-03-22T07:35:52.597Z,54.00
2023-03-22T07:38:22.869Z,50.20
2023-03-22T07:40:56.216Z,50.20
2023-03-22T07:56:38.124Z,44.10
2023-03-22T08:00:03.242Z,43.70
2023-03-22T08:12:14.664Z,41.80
2023-03-22T08:14:51.461Z,37.10
2023-03-22T08:17:24.733Z,33.30
2023-03-22T08:19:57.005Z,41.80
2023-03-22T08:22:40.017Z,41.50
2023-03-22T08:25:21.887Z,36.00
2023-03-22T08:27:51.346Z,48.00
2023-03-22T08:30:23.756Z,44.20
2023-03-22T08:32:55.775Z,36.00
2023-03-22T08:35:24.765Z,39.30
2023-03-22T08:37:55.053Z,39.10
2023-03-22T08:40:27.460Z,37.80
2023-03-22T08:43:01.631Z,39.00
2023-03-22T08:45:31.202Z,30.20
2023-03-22T08:48:07.011Z,35.00
2023-03-22T08:50:48.038Z,28.60
2023-03-22T08:53:26.920Z,32.40
2023-03-22T08:56:05.667Z,33.30
2023-03-22T08:58:57.361Z,30.70
2023-03-22T09:01:55.568Z,30.50
2023-03-22T09:04:24.766Z,30.70
2023-03-22T09:06:53.757Z,24.10
2023-03-22T09:09:24.606Z,38.00
2023-03-22T09:11:54.176Z,22.20
2023-03-22T09:14:23.321Z,30.10
2023-03-22T09:19:26.432Z,33.00
2023-03-22T09:21:55.886Z,22.20
2023-03-22T09:24:52.198Z,21.80
2023-03-22T09:27:21.855Z,18.20
2023-03-22T09:29:52.557Z,23.10
2023-03-22T09:32:21.462Z,21.20
2023-03-22T09:34:56.591Z,19.40
2023-03-22T09:37:32.814Z,29.50
2023-03-22T09:40:02.467Z,18.70
2023-03-22T09:42:34.419Z,20.30
2023-03-22T09:45:10.704Z,25.30
2023-03-22T09:47:45.034Z,22.60
2023-03-22T09:50:25.134Z,25.20
2023-03-22T09:52:54.071Z,20.00
2023-03-22T09:55:42.063Z,27.80
2023-03-22T09:58:14.155Z,26.80
2023-03-22T10:01:24.853Z,24.40
2023-03-22T10:04:02.353Z,23.40
2023-03-22T10:06:31.274Z,22.90
2023-03-22T10:09:24.476Z,30.10
2023-03-22T10:12:13.809Z,25.70
2023-03-22T10:15:03.740Z,29.80
2023-03-22T10:17:32.822Z,25.00
2023-03-22T10:20:30.198Z,21.40
2023-03-22T10:22:59.594Z,20.60
2023-03-22T10:25:33.947Z,25.40
2023-03-22T10:28:02.840Z,25.30
2023-03-22T10:30:38.569Z,24.20
2023-03-22T10:33:27.920Z,24.90
2023-03-22T10:35:56.654Z,23.10
2023-03-22T10:38:26.838Z,25.30
2023-03-22T10:40:59.749Z,25.90
2023-03-22T10:43:39.974Z,28.60
2023-03-22T10:46:13.976Z,18.40
2023-03-22T10:48:45.872Z,21.10
2023-03-22T10:51:40.408Z,27.00
2023-03-22T10:54:13.123Z,24.50
2023-03-22T10:56:41.921Z,27.10
2023-03-22T10:59:51.924Z,23.00
2023-03-22T11:02:23.129Z,33.60
2023-03-22T11:04:53.480Z,22.40
2023-03-22T11:07:35.035Z,27.30
2023-03-22T11:10:10.840Z,25.90
2023-03-22T11:12:45.043Z,29.40
2023-03-22T11:15:32.488Z,28.30
2023-03-22T11:18:07.367Z,34.30
2023-03-22T11:20:36.328Z,19.40
2023-03-22T11:23:06.215Z,26.20
2023-03-22T11:25:36.626Z,24.90
2023-03-22T11:28:05.690Z,20.60
2023-03-22T11:30:34.959Z,23.20
2023-03-22T11:33:20.165Z,31.20
2023-03-22T11:35:55.616Z,23.30
2023-03-22T11:38:41.177Z,21.30
2023-03-22T11:41:39.530Z,36.30
2023-03-22T11:44:13.747Z,23.00
2023-03-22T11:46:50.860Z,26.40
2023-03-22T11:49:19.437Z,23.60
2023-03-22T11:51:54.855Z,23.80
2023-03-22T11:54:28.000Z,24.60
2023-03-22T11:56:59.041Z,22.70
2023-03-22T11:59:39.894Z,25.50
2023-03-22T12:02:31.943Z,28.80
2023-03-22T12:05:23.609Z,22.80
2023-03-22T12:08:18.216Z,23.70
2023-03-22T12:11:07.601Z,22.50
2023-03-22T12:13:44.389Z,23.10
2023-03-22T12:16:14.773Z,20.10
2023-03-22T12:18:47.964Z,24.60
2023-03-22T12:21:18.491Z,21.10
2023-03-22T12:23:47.276Z,23.50
2023-03-22T12:26:20.265Z,18.30
2023-03-22T12:29:09.929Z,22.90
2023-03-22T12:32:08.863Z,24.00
2023-03-22T12:34:48.130Z,26.40
2023-03-22T12:37:29.670Z,22.30
2023-03-22T12:40:01.539Z,29.60
2023-03-22T12:42:50.363Z,24.90
2023-03-22T12:45:31.575Z,23.30
2023-03-22T12:48:12.866Z,23.90
2023-03-22T12:50:50.015Z,24.00
2023-03-22T12:53:19.422Z,22.70
2023-03-22T12:55:48.114Z,23.10
2023-03-22T12:58:22.707Z,27.70
2023-03-22T13:01:00.493Z,27.50
2023-03-22T13:03:52.364Z,26.10
2023-03-22T13:06:34.506Z,31.60
2023-03-22T13:09:10.242Z,21.60
2023-03-22T13:11:47.487Z,20.70
2023-03-22T13:14:52.530Z,20.60
2023-03-22T13:17:22.472Z,19.70
2023-03-22T13:20:15.897Z,17.40
2023-03-22T13:22:47.900Z,22.70
2023-03-22T13:25:19.548Z,17.00
2023-03-22T13:27:59.431Z,15.50
2023-03-22T13:30:31.754Z,19.00
2023-03-22T13:35:45.428Z,16.50
2023-03-22T13:38:26.928Z,23.50
2023-03-22T13:41:23.003Z,18.30
2023-03-22T13:43:59.043Z,17.30
2023-03-22T13:46:38.409Z,23.50
2023-03-22T13:49:20.195Z,17.30
2023-03-22T13:51:48.953Z,15.80
2023-03-22T13:54:21.220Z,19.10
2023-03-22T13:56:53.364Z,22.30
2023-03-22T13:59:30.079Z,19.90
2023-03-22T14:02:15.881Z,26.00
2023-03-22T14:04:50.768Z,22.40
2023-03-22T14:07:28.569Z,17.90
2023-03-22T14:10:00.606Z,27.00
2023-03-22T14:13:11.814Z,17.70
2023-03-22T14:15:43.331Z,21.90
2023-03-22T14:18:26.581Z,18.50
2023-03-22T14:21:00.191Z,20.20
